메인 페이지
METAR-TAF:

METAR-TAF

공항 :

토론토 피어슨 국제공항

토론토, 온타리오, 캐나다

위도: 43-40N, 경도: 079-38W, 고도: 173m

현재 날씨관측

예보는 32분 전, 08:00시(UTC)에 발표되었습니다.
동북동3kt
온도 19°C
습도 78%
기압 1017 hPa
시정: 24.1km
맑음

METAR: CYYZ 200800Z 06003KT 15SM SKC 19/15 A3002 RMK SLP165 DENSITY ALT 1100FT

시각: 04:32 (08:32 UTC)

예보

예보는 2 시간 53분 전, 05:39시(UTC)에 발표되었습니다.
예보 대상 시간: 20일 06시부터 21일 12시까지 (UTC)
남동6kt
시정: 10km
맑음
20일 1200시부터 (UTC)
남남동8kt
시정: 10km
맑음
전환 중
20일 15시부터 20일 17시까지 (UTC)
남남동12kt, 순간 최대 풍속 22kt
고도 6000ft 상공 구름 보통
20일 2300시부터 (UTC)
남동12kt
시정: 10km
고도 6000ft 상공 구름 많음
전환 중
21일 01시부터 21일 03시까지 (UTC)
남동7kt

TAF: CYYZ 200539Z 2006/2112 13006KT P6SM SKC FM201200 15008KT P6SM SKC BECMG 2015/2017 16012G22KT SCT060 FM202300 14012KT P6SM BKN060 BECMG 2101/2103 14007KT RMK NXT FCST BY 200900Z

4,000개 이상의 공항 관측 자료 및 예보 (METAR 및 TAF 보고).

지도상에서 검색 가능한 기상관측소가 노란 점과 빨간 점으로 표시되어 있습니다.

기상관측소 명을 보려면 표시 위로 마우스를 이동하세요.

날씨 관측과 예보를 보려면 클릭하세요.

지도 변경 : 확대하려면 엑스 표시가 있는 녹색 버튼, 축소하려면 빼기 표시가 있는 녹색 버튼, 다음 페이지의 지도를 보려면 녹색 화살표를 클릭하세요.


METAR-TAF: